LPFRLPMA

Guest
Details From LPFR - Faro
To LPMA - Madeira
Flight Number -
Tags generated
Created
Modified
Stats Distance 519 nm / 961 km
Max Altitude 30,900 ft / 9,418 m
Waypoints 7
Social Downloads 11
Likes 0
Share VATSIM

Download

Looking for another format? Having issues loading an existing format? Contact us
Advertisement - Login to hide

Notes

Basic altitude profile: - Ascent Rate: 2500ft/min - Ascent Speed: 250kts - Cruise Altitude: 35000ft - Cruise Speed: 420kts - Descent Rate: 1500ft/min - Descent Speed: 250kts Options: - Use NATs: yes - Use PACOTS: yes - Use low airways: yes - Use high airways: yes

Route

LPFR VFA R47 NARTA UN745 SNT LPMA

ID Type Via Altitude Latitude Longitude Leg Dist Tot Dist Heading (true) Name
O LPFR APT - 0 ft / 0 m 37.01534˚ -7.97233˚ - 0 nm - Faro
VFA VOR - 0 ft / 0 m 37.01352˚ -7.97501˚ 0 nm 0 nm 230° / 230° FARO VOR-DME
NARTA FIX R47 (AWY-LO) 18,500 ft / 5,639 m 36.05639˚ -12.55806˚ 228 nm 228 nm 257° / 254° -
GALPA FIX UN745 (AWY-HI) 30,900 ft / 9,418 m 34.39806˚ -14.73028˚ 145 nm 374 nm 228° / 226° -
RULET FIX UN745 (AWY-HI) 28,200 ft / 8,595 m 34.25167˚ -14.91556˚ 12 nm 387 nm 226° / 226° -
SNT VOR UN745 (AWY-HI) 18,500 ft / 5,639 m 33.09028˚ -16.35056˚ 100 nm 487 nm 226° / 225° PORTO SANTO VOR-DME
O LPMA APT - 0 ft / 0 m 32.69770˚ -16.77445˚ 31 nm 519 nm 222° / 222° Madeira

Altitude Profile

Advertisement - Login to hide

Weather


0- 5 10 15 20 25 30 35+ Temperature / ° C

Clouds and Precipitation
Forecast for 2018-05-26 18:00 UTC. Updated 3 hours ago

Ground ~20,000 ft ~40,000 ft Winds

LPFR

Details ICAO LPFR (FAO)
Name Faro
Region Portugal
Timezone Europe/Lisbon (UTC+1.0)
Stats Elevation 24 ft / 7 m (AMSL)
Location 37.015336° -7.972327°
Runways 1
Magnetic Variation 1.882° W

METAR

LPFR 262000Z 28009KT CAVOK 17/15 Q1013

Decode

TAF

TAF LPFR 261700Z 2618/2718 24008KT CAVOK BECMG 2620/2622 30007KT BECMG 2702/2705 VRB03KT 9999 SCT030 BECMG 2708/2711 26012KT

Decode

Departure Runways

ID Width Length Bearing (true) Bearing (mag) Surface Threshold Offset Overrun Length
10 148 ft / 45 m 8,148 ft / 2,484 m 100.08° 101.96° Asphalt 148 ft / 45 m 0 ft / 0 m
28 148 ft / 45 m 8,148 ft / 2,484 m 280.10° 281.98° Asphalt 148 ft / 45 m 0 ft / 0 m

LPMA

Details ICAO LPMA (FNC)
Name Madeira
Region Portugal
Timezone Atlantic/Madeira (UTC+1.0)
Stats Elevation 192 ft / 59 m (AMSL)
Location 32.697704° -16.774449°
Runways 1
Magnetic Variation 4.927° W

METAR

LPMA 262000Z 34006KT 280V020 9999 SCT016 17/09 Q1020

Decode

TAF

TAF LPMA 261700Z 2618/2718 36012KT 9999 SCT016 SCT030 TEMPO 2618/2708 BKN015 PROB30 TEMPO 2708/2718 36015G25KT

Decode

Destination Runways

ID Width Length Bearing (true) Bearing (mag) Surface Threshold Offset Overrun Length
05 141 ft / 43 m 8,683 ft / 2,647 m 42.98° 47.91° Asphalt 472 ft / 144 m 0 ft / 0 m
23 141 ft / 43 m 8,683 ft / 2,647 m 222.99° 227.92° Asphalt 466 ft / 142 m 0 ft / 0 m

Popular Alternatives